sensor_id;sensor_type;location;lat;lon;timestamp;pressure;altitude;pressure_sealevel;temperature;humidity
43115;BME280;28727;50.068;14.452;2023-05-10T00:02:29;98895.28;;;10.58;54.93
43115;BME280;28727;50.068;14.452;2023-05-10T00:05:01;98891.00;;;10.57;54.78
43115;BME280;28727;50.068;14.452;2023-05-10T00:07:33;98887.53;;;10.57;54.60
43115;BME280;28727;50.068;14.452;2023-05-10T00:10:06;98888.69;;;10.54;54.79
43115;BME280;28727;50.068;14.452;2023-05-10T00:12:40;98890.72;;;10.52;55.05
43115;BME280;28727;50.068;14.452;2023-05-10T00:15:12;98887.59;;;10.49;54.70
43115;BME280;28727;50.068;14.452;2023-05-10T00:17:44;98879.22;;;10.45;54.63
43115;BME280;28727;50.068;14.452;2023-05-10T00:20:16;98880.03;;;10.46;55.25
43115;BME280;28727;50.068;14.452;2023-05-10T00:22:48;98885.66;;;10.43;55.21
43115;BME280;28727;50.068;14.452;2023-05-10T00:25:22;98885.94;;;10.33;54.97
43115;BME280;28727;50.068;14.452;2023-05-10T00:27:54;98879.53;;;10.27;55.50
43115;BME280;28727;50.068;14.452;2023-05-10T00:30:29;98883.19;;;10.26;55.38
43115;BME280;28727;50.068;14.452;2023-05-10T00:33:03;98874.16;;;10.21;55.49
43115;BME280;28727;50.068;14.452;2023-05-10T00:35:35;98870.25;;;10.17;55.53
43115;BME280;28727;50.068;14.452;2023-05-10T00:38:06;98877.16;;;10.18;55.42
43115;BME280;28727;50.068;14.452;2023-05-10T00:40:38;98872.38;;;10.13;55.80
43115;BME280;28727;50.068;14.452;2023-05-10T00:43:16;98869.72;;;10.13;56.14
43115;BME280;28727;50.068;14.452;2023-05-10T00:45:48;98867.44;;;10.10;56.04
43115;BME280;28727;50.068;14.452;2023-05-10T00:48:20;98868.63;;;10.08;56.19
43115;BME280;28727;50.068;14.452;2023-05-10T00:50:53;98866.81;;;10.08;56.01
43115;BME280;28727;50.068;14.452;2023-05-10T00:53:25;98865.97;;;10.08;55.66
43115;BME280;28727;50.068;14.452;2023-05-10T00:55:57;98871.16;;;10.01;56.42
43115;BME280;28727;50.068;14.452;2023-05-10T00:58:29;98863.59;;;9.98;56.48
43115;BME280;28727;50.068;14.452;2023-05-10T01:01:02;98862.78;;;9.98;55.92
43115;BME280;28727;50.068;14.452;2023-05-10T01:03:36;98855.22;;;9.95;56.66
43115;BME280;28727;50.068;14.452;2023-05-10T01:06:10;98859.69;;;9.94;56.38
43115;BME280;28727;50.068;14.452;2023-05-10T01:08:42;98859.19;;;9.91;56.47
43115;BME280;28727;50.068;14.452;2023-05-10T01:11:15;98858.91;;;9.85;56.42
43115;BME280;28727;50.068;14.452;2023-05-10T01:13:52;98860.72;;;9.85;56.32
43115;BME280;28727;50.068;14.452;2023-05-10T01:16:26;98857.47;;;9.83;56.73
43115;BME280;28727;50.068;14.452;2023-05-10T01:18:59;98863.56;;;9.83;56.52
43115;BME280;28727;50.068;14.452;2023-05-10T01:22:02;98852.34;;;9.81;56.76
43115;BME280;28727;50.068;14.452;2023-05-10T01:27:47;98853.06;;;9.75;56.83
43115;BME280;28727;50.068;14.452;2023-05-10T01:33:19;98849.00;;;9.65;57.82
43115;BME280;28727;50.068;14.452;2023-05-10T01:36:32;98846.41;;;9.57;57.64
43115;BME280;28727;50.068;14.452;2023-05-10T01:39:28;98853.50;;;9.56;57.56
43115;BME280;28727;50.068;14.452;2023-05-10T01:42:08;98836.41;;;9.52;57.75
43115;BME280;28727;50.068;14.452;2023-05-10T01:44:49;98844.31;;;9.52;57.88
43115;BME280;28727;50.068;14.452;2023-05-10T01:47:38;98848.09;;;9.50;58.26
43115;BME280;28727;50.068;14.452;2023-05-10T01:50:30;98846.66;;;9.47;58.38
43115;BME280;28727;50.068;14.452;2023-05-10T01:53:06;98843.19;;;9.47;58.04
43115;BME280;28727;50.068;14.452;2023-05-10T01:55:48;98841.38;;;9.47;58.65
43115;BME280;28727;50.068;14.452;2023-05-10T01:58:28;98844.00;;;9.47;58.90
43115;BME280;28727;50.068;14.452;2023-05-10T02:01:03;98838.75;;;9.47;59.07
43115;BME280;28727;50.068;14.452;2023-05-10T02:03:37;98834.16;;;9.41;58.50
43115;BME280;28727;50.068;14.452;2023-05-10T02:06:10;98842.25;;;9.39;59.09
43115;BME280;28727;50.068;14.452;2023-05-10T02:08:45;98837.94;;;9.38;58.27
43115;BME280;28727;50.068;14.452;2023-05-10T02:11:19;98843.59;;;9.35;58.54
43115;BME280;28727;50.068;14.452;2023-05-10T02:13:52;98841.94;;;9.34;58.93
43115;BME280;28727;50.068;14.452;2023-05-10T02:16:30;98841.44;;;9.31;58.49
43115;BME280;28727;50.068;14.452;2023-05-10T02:19:04;98843.09;;;9.32;58.95
43115;BME280;28727;50.068;14.452;2023-05-10T02:21:39;98838.88;;;9.23;59.51
43115;BME280;28727;50.068;14.452;2023-05-10T02:24:11;98839.41;;;9.18;59.94
43115;BME280;28727;50.068;14.452;2023-05-10T02:26:45;98844.34;;;9.13;60.12
43115;BME280;28727;50.068;14.452;2023-05-10T02:29:19;98848.00;;;9.12;59.90
43115;BME280;28727;50.068;14.452;2023-05-10T02:31:53;98843.22;;;9.08;60.19
43115;BME280;28727;50.068;14.452;2023-05-10T02:34:26;98830.56;;;9.03;60.14
43115;BME280;28727;50.068;14.452;2023-05-10T02:36:59;98833.72;;;8.98;60.35
43115;BME280;28727;50.068;14.452;2023-05-10T02:39:32;98828.78;;;8.95;60.62
43115;BME280;28727;50.068;14.452;2023-05-10T02:42:05;98832.44;;;8.94;60.72
43115;BME280;28727;50.068;14.452;2023-05-10T02:44:37;98833.09;;;8.88;61.21
43115;BME280;28727;50.068;14.452;2023-05-10T02:47:11;98827.84;;;8.88;61.11
43115;BME280;28727;50.068;14.452;2023-05-10T02:49:43;98828.16;;;8.85;60.66
43115;BME280;28727;50.068;14.452;2023-05-10T02:52:24;98834.41;;;8.84;61.11
43115;BME280;28727;50.068;14.452;2023-05-10T02:55:01;98830.31;;;8.82;61.04
43115;BME280;28727;50.068;14.452;2023-05-10T02:57:35;98823.25;;;8.82;61.39
43115;BME280;28727;50.068;14.452;2023-05-10T03:00:10;98827.53;;;8.83;61.14
43115;BME280;28727;50.068;14.452;2023-05-10T03:02:43;98825.88;;;8.82;61.20
43115;BME280;28727;50.068;14.452;2023-05-10T03:05:15;98823.75;;;8.78;61.48
43115;BME280;28727;50.068;14.452;2023-05-10T03:07:47;98827.09;;;8.72;61.73
43115;BME280;28727;50.068;14.452;2023-05-10T03:10:23;98824.78;;;8.69;61.89
43115;BME280;28727;50.068;14.452;2023-05-10T03:19:27;98815.38;;;8.74;61.52
43115;BME280;28727;50.068;14.452;2023-05-10T03:21:41;98813.56;;;8.75;61.69
43115;BME280;28727;50.068;14.452;2023-05-10T03:24:16;98815.06;;;8.69;61.73
43115;BME280;28727;50.068;14.452;2023-05-10T03:26:55;98813.56;;;8.67;62.31
43115;BME280;28727;50.068;14.452;2023-05-10T03:29:29;98821.66;;;8.65;62.20
43115;BME280;28727;50.068;14.452;2023-05-10T03:32:04;98820.66;;;8.66;62.52
43115;BME280;28727;50.068;14.452;2023-05-10T03:34:41;98826.75;;;8.67;62.39
43115;BME280;28727;50.068;14.452;2023-05-10T03:37:14;98827.56;;;8.67;62.06
43115;BME280;28727;50.068;14.452;2023-05-10T03:39:46;98825.13;;;8.66;62.11
43115;BME280;28727;50.068;14.452;2023-05-10T03:42:18;98830.56;;;8.64;62.83
43115;BME280;28727;50.068;14.452;2023-05-10T03:44:51;98836.28;;;8.68;62.76
43115;BME280;28727;50.068;14.452;2023-05-10T03:47:23;98838.75;;;8.69;63.30
43115;BME280;28727;50.068;14.452;2023-05-10T03:49:55;98843.38;;;8.67;62.53
43115;BME280;28727;50.068;14.452;2023-05-10T03:52:27;98842.22;;;8.70;62.96
43115;BME280;28727;50.068;14.452;2023-05-10T03:54:59;98842.06;;;8.71;63.38
43115;BME280;28727;50.068;14.452;2023-05-10T03:57:31;98839.41;;;8.71;62.97
43115;BME280;28727;50.068;14.452;2023-05-10T04:00:04;98835.44;;;8.75;63.26
43115;BME280;28727;50.068;14.452;2023-05-10T04:02:44;98851.41;;;8.82;62.91
43115;BME280;28727;50.068;14.452;2023-05-10T04:05:22;98838.53;;;8.87;62.41
43115;BME280;28727;50.068;14.452;2023-05-10T04:07:59;98837.03;;;8.92;62.75
43115;BME280;28727;50.068;14.452;2023-05-10T04:10:31;98844.56;;;8.95;63.13
43115;BME280;28727;50.068;14.452;2023-05-10T04:13:03;98836.34;;;8.98;62.37
43115;BME280;28727;50.068;14.452;2023-05-10T04:15:35;98838.00;;;8.99;62.92
43115;BME280;28727;50.068;14.452;2023-05-10T04:18:10;98837.16;;;9.07;62.57
43115;BME280;28727;50.068;14.452;2023-05-10T04:20:43;98829.19;;;9.15;61.86
43115;BME280;28727;50.068;14.452;2023-05-10T04:23:17;98832.41;;;9.25;62.70
43115;BME280;28727;50.068;14.452;2023-05-10T04:25:51;98835.69;;;9.35;62.01
43115;BME280;28727;50.068;14.452;2023-05-10T04:28:23;98834.78;;;9.43;61.92
43115;BME280;28727;50.068;14.452;2023-05-10T04:31:08;98831.78;;;9.54;61.48
43115;BME280;28727;50.068;14.452;2023-05-10T04:33:40;98839.44;;;9.64;61.22
43115;BME280;28727;50.068;14.452;2023-05-10T04:36:13;98830.75;;;9.78;61.23
43115;BME280;28727;50.068;14.452;2023-05-10T04:38:45;98826.44;;;9.85;60.51
43115;BME280;28727;50.068;14.452;2023-05-10T04:41:17;98828.84;;;9.95;60.59
43115;BME280;28727;50.068;14.452;2023-05-10T04:43:49;98823.47;;;10.03;60.45
43115;BME280;28727;50.068;14.452;2023-05-10T04:46:20;98826.50;;;10.14;60.02
43115;BME280;28727;50.068;14.452;2023-05-10T04:48:52;98826.66;;;10.21;59.47
43115;BME280;28727;50.068;14.452;2023-05-10T04:51:24;98826.59;;;10.29;59.91
43115;BME280;28727;50.068;14.452;2023-05-10T04:53:56;98823.13;;;10.43;59.55
43115;BME280;28727;50.068;14.452;2023-05-10T04:56:37;98811.03;;;10.63;59.17
43115;BME280;28727;50.068;14.452;2023-05-10T04:59:08;98820.22;;;10.82;58.35
43115;BME280;28727;50.068;14.452;2023-05-10T05:01:41;98805.63;;;11.01;57.90
43115;BME280;28727;50.068;14.452;2023-05-10T05:04:12;98816.72;;;11.11;57.90
43115;BME280;28727;50.068;14.452;2023-05-10T05:06:46;98817.16;;;11.29;56.99
43115;BME280;28727;50.068;14.452;2023-05-10T05:09:17;98819.38;;;11.47;57.19
43115;BME280;28727;50.068;14.452;2023-05-10T05:11:49;98821.03;;;11.48;56.64
43115;BME280;28727;50.068;14.452;2023-05-10T05:14:24;98821.28;;;11.53;56.49
43115;BME280;28727;50.068;14.452;2023-05-10T05:16:59;98818.31;;;11.63;56.16
43115;BME280;28727;50.068;14.452;2023-05-10T05:19:31;98820.63;;;11.72;56.19
43115;BME280;28727;50.068;14.452;2023-05-10T05:22:03;98820.44;;;11.88;55.84
43115;BME280;28727;50.068;14.452;2023-05-10T05:24:38;98819.22;;;12.12;55.43
43115;BME280;28727;50.068;14.452;2023-05-10T05:27:10;98822.22;;;12.37;54.67
43115;BME280;28727;50.068;14.452;2023-05-10T05:29:42;98815.31;;;12.70;54.20
43115;BME280;28727;50.068;14.452;2023-05-10T05:32:13;98819.91;;;12.90;53.39
43115;BME280;28727;50.068;14.452;2023-05-10T05:34:45;98821.25;;;13.13;52.39
43115;BME280;28727;50.068;14.452;2023-05-10T05:37:18;98816.22;;;13.32;52.51
43115;BME280;28727;50.068;14.452;2023-05-10T05:39:53;98820.56;;;13.46;52.34
43115;BME280;28727;50.068;14.452;2023-05-10T05:42:27;98816.13;;;13.79;51.71
43115;BME280;28727;50.068;14.452;2023-05-10T05:44:58;98819.63;;;14.00;50.98
43115;BME280;28727;50.068;14.452;2023-05-10T05:47:30;98818.59;;;14.14;50.64
43115;BME280;28727;50.068;14.452;2023-05-10T05:50:05;98817.81;;;14.40;49.81
43115;BME280;28727;50.068;14.452;2023-05-10T05:52:37;98828.00;;;14.49;49.54
43115;BME280;28727;50.068;14.452;2023-05-10T05:55:08;98817.56;;;14.61;49.40
43115;BME280;28727;50.068;14.452;2023-05-10T05:57:40;98818.16;;;14.76;49.11
43115;BME280;28727;50.068;14.452;2023-05-10T06:00:12;98815.44;;;14.96;48.84
43115;BME280;28727;50.068;14.452;2023-05-10T06:02:44;98816.31;;;15.28;48.31
43115;BME280;28727;50.068;14.452;2023-05-10T06:05:16;98818.41;;;15.64;47.55
43115;BME280;28727;50.068;14.452;2023-05-10T06:07:49;98818.72;;;15.80;47.05
43115;BME280;28727;50.068;14.452;2023-05-10T06:10:20;98815.81;;;15.88;46.58
43115;BME280;28727;50.068;14.452;2023-05-10T06:12:52;98816.09;;;16.05;46.44
43115;BME280;28727;50.068;14.452;2023-05-10T06:15:24;98812.75;;;16.10;45.74
43115;BME280;28727;50.068;14.452;2023-05-10T06:17:56;98816.78;;;15.94;46.43
43115;BME280;28727;50.068;14.452;2023-05-10T06:20:31;98812.56;;;16.11;46.41
43115;BME280;28727;50.068;14.452;2023-05-10T06:23:05;98817.38;;;16.46;45.86
43115;BME280;28727;50.068;14.452;2023-05-10T06:25:38;98807.88;;;16.93;45.26
43115;BME280;28727;50.068;14.452;2023-05-10T06:28:10;98803.28;;;17.18;44.02
43115;BME280;28727;50.068;14.452;2023-05-10T06:30:42;98804.44;;;17.40;43.84
43115;BME280;28727;50.068;14.452;2023-05-10T06:33:17;98805.88;;;17.54;43.38
43115;BME280;28727;50.068;14.452;2023-05-10T06:35:48;98805.88;;;17.54;43.00
43115;BME280;28727;50.068;14.452;2023-05-10T06:38:20;98809.72;;;17.58;43.45
43115;BME280;28727;50.068;14.452;2023-05-10T06:40:55;98804.56;;;17.75;42.73
43115;BME280;28727;50.068;14.452;2023-05-10T06:43:27;98815.88;;;17.77;41.92
43115;BME280;28727;50.068;14.452;2023-05-10T06:46:00;98810.44;;;17.95;40.89
43115;BME280;28727;50.068;14.452;2023-05-10T06:48:32;98798.47;;;17.98;40.62
43115;BME280;28727;50.068;14.452;2023-05-10T06:51:04;98797.94;;;18.19;40.03
43115;BME280;28727;50.068;14.452;2023-05-10T06:53:35;98811.19;;;18.14;39.67
43115;BME280;28727;50.068;14.452;2023-05-10T06:56:07;98813.13;;;17.95;39.79
43115;BME280;28727;50.068;14.452;2023-05-10T06:58:39;98798.94;;;17.95;40.06
43115;BME280;28727;50.068;14.452;2023-05-10T07:01:11;98807.72;;;18.25;39.78
43115;BME280;28727;50.068;14.452;2023-05-10T07:03:43;98807.00;;;18.30;39.37
43115;BME280;28727;50.068;14.452;2023-05-10T07:06:15;98799.09;;;18.35;39.58
43115;BME280;28727;50.068;14.452;2023-05-10T07:09:04;98805.84;;;18.49;39.70
43115;BME280;28727;50.068;14.452;2023-05-10T07:11:36;98794.88;;;18.86;39.52
43115;BME280;28727;50.068;14.452;2023-05-10T07:14:08;98795.06;;;19.19;38.57
43115;BME280;28727;50.068;14.452;2023-05-10T07:16:41;98793.06;;;19.14;38.15
43115;BME280;28727;50.068;14.452;2023-05-10T07:19:12;98791.13;;;19.38;37.93
43115;BME280;28727;50.068;14.452;2023-05-10T07:21:44;98791.97;;;19.67;37.98
43115;BME280;28727;50.068;14.452;2023-05-10T07:24:18;98788.34;;;19.73;37.41
43115;BME280;28727;50.068;14.452;2023-05-10T07:26:50;98794.78;;;19.89;37.20
43115;BME280;28727;50.068;14.452;2023-05-10T07:29:22;98792.97;;;19.94;36.53
43115;BME280;28727;50.068;14.452;2023-05-10T07:31:55;98802.81;;;19.89;36.86
43115;BME280;28727;50.068;14.452;2023-05-10T07:34:29;98791.44;;;20.15;36.57
43115;BME280;28727;50.068;14.452;2023-05-10T07:37:01;98791.19;;;20.50;36.23
43115;BME280;28727;50.068;14.452;2023-05-10T07:39:34;98795.47;;;20.68;35.68
43115;BME280;28727;50.068;14.452;2023-05-10T07:42:05;98791.72;;;20.69;35.58
43115;BME280;28727;50.068;14.452;2023-05-10T07:44:37;98788.09;;;20.97;35.18
43115;BME280;28727;50.068;14.452;2023-05-10T07:47:09;98781.97;;;21.23;34.81
43115;BME280;28727;50.068;14.452;2023-05-10T07:49:41;98781.06;;;21.39;34.69
43115;BME280;28727;50.068;14.452;2023-05-10T07:52:12;98782.00;;;21.50;34.45
43115;BME280;28727;50.068;14.452;2023-05-10T07:54:45;98794.53;;;21.66;34.39
43115;BME280;28727;50.068;14.452;2023-05-10T07:57:17;98779.00;;;21.46;34.08
43115;BME280;28727;50.068;14.452;2023-05-10T07:59:49;98790.91;;;21.29;34.26
43115;BME280;28727;50.068;14.452;2023-05-10T08:02:21;98788.19;;;21.07;34.78
43115;BME280;28727;50.068;14.452;2023-05-10T08:04:53;98781.19;;;21.49;34.49
43115;BME280;28727;50.068;14.452;2023-05-10T08:07:25;98778.44;;;21.71;34.15
43115;BME280;28727;50.068;14.452;2023-05-10T08:09:58;98776.03;;;21.96;33.62
43115;BME280;28727;50.068;14.452;2023-05-10T08:12:30;98780.31;;;21.97;33.44
43115;BME280;28727;50.068;14.452;2023-05-10T08:15:03;98781.13;;;21.98;33.42
43115;BME280;28727;50.068;14.452;2023-05-10T08:17:35;98778.53;;;22.08;34.05
43115;BME280;28727;50.068;14.452;2023-05-10T08:20:08;98784.91;;;21.97;33.12
43115;BME280;28727;50.068;14.452;2023-05-10T08:22:40;98771.41;;;22.29;33.32
43115;BME280;28727;50.068;14.452;2023-05-10T08:25:12;98782.16;;;22.71;33.03
43115;BME280;28727;50.068;14.452;2023-05-10T08:27:44;98773.94;;;22.93;32.36
43115;BME280;28727;50.068;14.452;2023-05-10T08:30:16;98779.66;;;23.01;31.62
43115;BME280;28727;50.068;14.452;2023-05-10T08:32:48;98780.00;;;23.20;31.61
43115;BME280;28727;50.068;14.452;2023-05-10T08:35:19;98783.34;;;23.47;31.57
43115;BME280;28727;50.068;14.452;2023-05-10T08:37:51;98772.56;;;23.57;31.24
43115;BME280;28727;50.068;14.452;2023-05-10T08:40:24;98770.16;;;23.56;31.18
43115;BME280;28727;50.068;14.452;2023-05-10T08:43:05;98780.53;;;23.22;31.80
43115;BME280;28727;50.068;14.452;2023-05-10T08:45:43;98773.03;;;23.34;31.74
43115;BME280;28727;50.068;14.452;2023-05-10T08:48:17;98771.53;;;23.79;31.35
43115;BME280;28727;50.068;14.452;2023-05-10T08:50:52;98777.44;;;24.16;29.95
43115;BME280;28727;50.068;14.452;2023-05-10T08:53:24;98775.03;;;24.40;29.72
43115;BME280;28727;50.068;14.452;2023-05-10T08:56:03;98777.44;;;24.62;29.00
43115;BME280;28727;50.068;14.452;2023-05-10T08:58:36;98766.34;;;24.58;29.44
43115;BME280;28727;50.068;14.452;2023-05-10T09:01:10;98770.91;;;24.78;29.44
43115;BME280;28727;50.068;14.452;2023-05-10T09:03:46;98776.53;;;24.86;29.49
43115;BME280;28727;50.068;14.452;2023-05-10T09:06:18;98772.53;;;24.79;29.18
43115;BME280;28727;50.068;14.452;2023-05-10T09:08:50;98764.25;;;24.35;29.80
43115;BME280;28727;50.068;14.452;2023-05-10T09:11:22;98760.72;;;24.39;29.80
43115;BME280;28727;50.068;14.452;2023-05-10T09:13:54;98760.19;;;24.42;29.97
43115;BME280;28727;50.068;14.452;2023-05-10T09:16:26;98766.94;;;24.30;29.76
43115;BME280;28727;50.068;14.452;2023-05-10T09:18:59;98761.53;;;24.50;29.97
43115;BME280;28727;50.068;14.452;2023-05-10T09:21:31;98764.41;;;24.84;29.06
43115;BME280;28727;50.068;14.452;2023-05-10T09:24:07;98769.25;;;24.92;28.99
43115;BME280;28727;50.068;14.452;2023-05-10T09:26:46;98771.53;;;24.44;28.98
43115;BME280;28727;50.068;14.452;2023-05-10T09:29:19;98766.41;;;24.23;29.58
43115;BME280;28727;50.068;14.452;2023-05-10T09:31:52;98770.22;;;24.27;29.57
43115;BME280;28727;50.068;14.452;2023-05-10T09:34:31;98769.91;;;23.98;29.14
43115;BME280;28727;50.068;14.452;2023-05-10T09:37:03;98767.25;;;24.18;29.39
43115;BME280;28727;50.068;14.452;2023-05-10T09:39:37;98754.47;;;24.59;29.06
43115;BME280;28727;50.068;14.452;2023-05-10T09:42:11;98764.13;;;24.91;28.32
43115;BME280;28727;50.068;14.452;2023-05-10T09:44:43;98772.78;;;24.82;28.69
43115;BME280;28727;50.068;14.452;2023-05-10T09:47:18;98761.56;;;24.25;29.47
43115;BME280;28727;50.068;14.452;2023-05-10T09:49:53;98759.13;;;24.08;29.48
43115;BME280;28727;50.068;14.452;2023-05-10T09:52:27;98751.81;;;24.39;30.01
43115;BME280;28727;50.068;14.452;2023-05-10T09:54:58;98761.50;;;24.55;29.28
43115;BME280;28727;50.068;14.452;2023-05-10T09:57:30;98756.16;;;24.30;29.58
43115;BME280;28727;50.068;14.452;2023-05-10T10:00:06;98759.91;;;24.34;29.45
43115;BME280;28727;50.068;14.452;2023-05-10T10:02:46;98757.94;;;24.70;29.39
43115;BME280;28727;50.068;14.452;2023-05-10T10:05:18;98756.22;;;25.09;29.09
43115;BME280;28727;50.068;14.452;2023-05-10T10:07:50;98759.69;;;25.20;28.47
43115;BME280;28727;50.068;14.452;2023-05-10T10:10:22;98765.47;;;24.93;28.70
43115;BME280;28727;50.068;14.452;2023-05-10T10:12:54;98766.09;;;24.60;29.27
43115;BME280;28727;50.068;14.452;2023-05-10T10:15:27;98759.94;;;24.24;29.47
43115;BME280;28727;50.068;14.452;2023-05-10T10:18:02;98754.53;;;24.34;29.18
43115;BME280;28727;50.068;14.452;2023-05-10T10:20:37;98760.47;;;24.36;29.79
43115;BME280;28727;50.068;14.452;2023-05-10T10:23:09;98752.91;;;24.02;30.12
43115;BME280;28727;50.068;14.452;2023-05-10T10:25:41;98749.41;;;24.22;29.53
43115;BME280;28727;50.068;14.452;2023-05-10T10:28:24;98748.84;;;24.35;29.57
43115;BME280;28727;50.068;14.452;2023-05-10T10:31:09;98747.50;;;24.38;29.20
43115;BME280;28727;50.068;14.452;2023-05-10T10:34:06;98749.94;;;23.99;30.10
43115;BME280;28727;50.068;14.452;2023-05-10T10:36:43;98752.63;;;23.99;29.78
43115;BME280;28727;50.068;14.452;2023-05-10T10:39:16;98739.41;;;24.23;29.13
43115;BME280;28727;50.068;14.452;2023-05-10T10:41:58;98742.91;;;24.43;29.04
43115;BME280;28727;50.068;14.452;2023-05-10T10:52:37;98732.41;;;24.27;29.31
43115;BME280;28727;50.068;14.452;2023-05-10T10:55:19;98737.53;;;23.88;29.76
43115;BME280;28727;50.068;14.452;2023-05-10T10:57:54;98742.66;;;23.79;30.21
43115;BME280;28727;50.068;14.452;2023-05-10T11:00:34;98731.59;;;23.76;30.46
43115;BME280;28727;50.068;14.452;2023-05-10T11:03:11;98728.88;;;23.81;29.88
43115;BME280;28727;50.068;14.452;2023-05-10T11:05:47;98731.34;;;23.72;30.28
43115;BME280;28727;50.068;14.452;2023-05-10T11:08:34;98728.25;;;23.28;30.87
43115;BME280;28727;50.068;14.452;2023-05-10T11:11:08;98729.75;;;22.83;31.39
43115;BME280;28727;50.068;14.452;2023-05-10T11:13:45;98732.72;;;22.92;31.87
43115;BME280;28727;50.068;14.452;2023-05-10T11:16:23;98727.75;;;23.36;31.14
43115;BME280;28727;50.068;14.452;2023-05-10T11:19:11;98730.50;;;23.82;30.34
43115;BME280;28727;50.068;14.452;2023-05-10T11:24:22;98729.13;;;24.40;29.89
43115;BME280;28727;50.068;14.452;2023-05-10T11:26:58;98721.31;;;24.33;30.08
43115;BME280;28727;50.068;14.452;2023-05-10T11:29:31;98728.34;;;24.14;29.63
43115;BME280;28727;50.068;14.452;2023-05-10T11:32:04;98720.53;;;24.13;29.73
43115;BME280;28727;50.068;14.452;2023-05-10T11:34:39;98715.66;;;24.35;29.74
43115;BME280;28727;50.068;14.452;2023-05-10T11:37:11;98717.81;;;24.38;29.26
43115;BME280;28727;50.068;14.452;2023-05-10T11:39:46;98720.00;;;24.26;29.24
43115;BME280;28727;50.068;14.452;2023-05-10T11:42:21;98732.66;;;24.30;29.77
43115;BME280;28727;50.068;14.452;2023-05-10T11:44:53;98711.84;;;24.41;29.03
43115;BME280;28727;50.068;14.452;2023-05-10T11:47:24;98721.84;;;24.40;29.24
43115;BME280;28727;50.068;14.452;2023-05-10T11:49:57;98722.59;;;24.61;29.19
43115;BME280;28727;50.068;14.452;2023-05-10T11:52:29;98729.63;;;24.52;28.97
43115;BME280;28727;50.068;14.452;2023-05-10T11:55:00;98713.41;;;24.62;28.68
43115;BME280;28727;50.068;14.452;2023-05-10T11:57:32;98711.72;;;24.92;28.86
43115;BME280;28727;50.068;14.452;2023-05-10T12:00:05;98718.78;;;24.72;28.74
43115;BME280;28727;50.068;14.452;2023-05-10T12:02:38;98717.44;;;24.70;28.56
43115;BME280;28727;50.068;14.452;2023-05-10T12:05:10;98720.78;;;24.36;29.15
43115;BME280;28727;50.068;14.452;2023-05-10T12:07:42;98728.09;;;24.21;29.18
43115;BME280;28727;50.068;14.452;2023-05-10T12:10:14;98720.78;;;24.16;29.84
43115;BME280;28727;50.068;14.452;2023-05-10T12:12:47;98731.34;;;23.97;29.99
43115;BME280;28727;50.068;14.452;2023-05-10T12:15:23;98734.56;;;23.64;30.40
43115;BME280;28727;50.068;14.452;2023-05-10T12:17:56;98727.78;;;23.51;30.50
43115;BME280;28727;50.068;14.452;2023-05-10T12:20:28;98730.53;;;23.61;30.51
43115;BME280;28727;50.068;14.452;2023-05-10T12:23:01;98742.91;;;23.52;30.48
43115;BME280;28727;50.068;14.452;2023-05-10T12:25:38;98742.56;;;23.28;30.87
43115;BME280;28727;50.068;14.452;2023-05-10T12:28:10;98735.78;;;23.21;31.02
43115;BME280;28727;50.068;14.452;2023-05-10T12:30:45;98741.94;;;23.01;31.14
43115;BME280;28727;50.068;14.452;2023-05-10T12:33:17;98757.53;;;22.94;31.44
43115;BME280;28727;50.068;14.452;2023-05-10T12:35:53;98747.66;;;22.63;32.01
43115;BME280;28727;50.068;14.452;2023-05-10T12:38:32;98750.47;;;22.36;32.64
43115;BME280;28727;50.068;14.452;2023-05-10T12:41:07;98750.88;;;22.18;33.03
43115;BME280;28727;50.068;14.452;2023-05-10T12:43:41;98747.91;;;22.14;33.05
43115;BME280;28727;50.068;14.452;2023-05-10T12:46:16;98746.63;;;22.27;33.03
43115;BME280;28727;50.068;14.452;2023-05-10T12:48:48;98743.47;;;22.35;33.07
43115;BME280;28727;50.068;14.452;2023-05-10T12:51:39;98737.03;;;22.41;33.01
43115;BME280;28727;50.068;14.452;2023-05-10T12:54:11;98748.03;;;22.34;33.38
43115;BME280;28727;50.068;14.452;2023-05-10T12:56:43;98752.69;;;22.07;33.76
43115;BME280;28727;50.068;14.452;2023-05-10T12:59:15;98751.28;;;21.99;34.11
43115;BME280;28727;50.068;14.452;2023-05-10T13:01:46;98750.25;;;22.05;34.30
43115;BME280;28727;50.068;14.452;2023-05-10T13:04:19;98747.38;;;22.17;34.39
43115;BME280;28727;50.068;14.452;2023-05-10T13:06:51;98752.78;;;22.22;34.27
43115;BME280;28727;50.068;14.452;2023-05-10T13:09:23;98754.38;;;22.18;34.37
43115;BME280;28727;50.068;14.452;2023-05-10T13:11:56;98750.09;;;22.22;34.41
43115;BME280;28727;50.068;14.452;2023-05-10T13:14:29;98752.78;;;22.22;34.61
43115;BME280;28727;50.068;14.452;2023-05-10T13:17:01;98750.34;;;22.21;34.50
43115;BME280;28727;50.068;14.452;2023-05-10T13:19:32;98746.94;;;22.30;34.21
43115;BME280;28727;50.068;14.452;2023-05-10T13:22:06;98745.56;;;22.28;34.15
43115;BME280;28727;50.068;14.452;2023-05-10T13:24:38;98745.53;;;22.23;34.19
43115;BME280;28727;50.068;14.452;2023-05-10T13:27:10;98741.22;;;22.22;34.48
43115;BME280;28727;50.068;14.452;2023-05-10T13:29:42;98748.97;;;22.13;34.27
43115;BME280;28727;50.068;14.452;2023-05-10T13:32:20;98748.66;;;22.10;34.40
43115;BME280;28727;50.068;14.452;2023-05-10T13:34:52;98743.88;;;22.17;34.15
43115;BME280;28727;50.068;14.452;2023-05-10T13:37:27;98745.28;;;22.24;34.46
43115;BME280;28727;50.068;14.452;2023-05-10T13:40:00;98743.34;;;22.15;34.42
43115;BME280;28727;50.068;14.452;2023-05-10T13:42:32;98739.88;;;22.19;34.50
43115;BME280;28727;50.068;14.452;2023-05-10T13:45:05;98734.81;;;22.33;34.03
43115;BME280;28727;50.068;14.452;2023-05-10T13:47:37;98737.03;;;22.41;33.96
43115;BME280;28727;50.068;14.452;2023-05-10T13:50:09;98744.31;;;22.45;34.26
43115;BME280;28727;50.068;14.452;2023-05-10T13:52:41;98738.06;;;22.30;34.05